sensor_id;sensor_type;location;lat;lon;timestamp;temperature;humidity
1590;DHT22;788;48.720;9.158;2022-11-20T00:01:20;6.00;99.90
1590;DHT22;788;48.720;9.158;2022-11-20T00:03:48;6.10;99.90
1590;DHT22;788;48.720;9.158;2022-11-20T00:06:17;6.10;99.90
1590;DHT22;788;48.720;9.158;2022-11-20T00:08:46;6.10;99.90
1590;DHT22;788;48.720;9.158;2022-11-20T00:11:15;6.10;99.90
1590;DHT22;788;48.720;9.158;2022-11-20T00:13:43;6.10;99.90
1590;DHT22;788;48.720;9.158;2022-11-20T00:16:12;6.10;99.90
1590;DHT22;788;48.720;9.158;2022-11-20T00:18:40;6.10;99.90
1590;DHT22;788;48.720;9.158;2022-11-20T00:21:11;6.00;99.90
1590;DHT22;788;48.720;9.158;2022-11-20T00:23:47;6.00;99.90
1590;DHT22;788;48.720;9.158;2022-11-20T00:26:16;6.10;99.90
1590;DHT22;788;48.720;9.158;2022-11-20T00:28:44;6.10;99.90
1590;DHT22;788;48.720;9.158;2022-11-20T00:31:17;6.20;99.90
1590;DHT22;788;48.720;9.158;2022-11-20T00:33:46;6.10;99.90
1590;DHT22;788;48.720;9.158;2022-11-20T00:36:15;5.90;99.90
1590;DHT22;788;48.720;9.158;2022-11-20T00:38:43;5.90;99.90
1590;DHT22;788;48.720;9.158;2022-11-20T00:41:15;5.80;99.90
1590;DHT22;788;48.720;9.158;2022-11-20T00:43:48;5.90;99.90
1590;DHT22;788;48.720;9.158;2022-11-20T00:46:17;5.90;99.90
1590;DHT22;788;48.720;9.158;2022-11-20T00:48:47;5.70;99.90
1590;DHT22;788;48.720;9.158;2022-11-20T00:51:15;5.70;99.90
1590;DHT22;788;48.720;9.158;2022-11-20T00:53:42;5.60;99.90
1590;DHT22;788;48.720;9.158;2022-11-20T00:56:11;5.50;99.90
1590;DHT22;788;48.720;9.158;2022-11-20T00:58:42;5.60;99.90
1590;DHT22;788;48.720;9.158;2022-11-20T01:01:10;5.60;99.90
1590;DHT22;788;48.720;9.158;2022-11-20T01:03:39;5.70;99.90
1590;DHT22;788;48.720;9.158;2022-11-20T01:06:09;5.80;99.90
1590;DHT22;788;48.720;9.158;2022-11-20T01:08:38;5.70;99.90
1590;DHT22;788;48.720;9.158;2022-11-20T01:11:07;5.50;99.90
1590;DHT22;788;48.720;9.158;2022-11-20T01:13:35;5.50;99.90
1590;DHT22;788;48.720;9.158;2022-11-20T01:16:10;5.50;99.90
1590;DHT22;788;48.720;9.158;2022-11-20T01:18:40;5.60;99.90
1590;DHT22;788;48.720;9.158;2022-11-20T01:21:16;5.60;99.90
1590;DHT22;788;48.720;9.158;2022-11-20T01:23:44;5.80;99.90
1590;DHT22;788;48.720;9.158;2022-11-20T01:26:14;5.80;99.90
1590;DHT22;788;48.720;9.158;2022-11-20T01:28:41;5.70;99.90
1590;DHT22;788;48.720;9.158;2022-11-20T01:31:15;5.60;99.90
1590;DHT22;788;48.720;9.158;2022-11-20T01:33:42;5.60;99.90
1590;DHT22;788;48.720;9.158;2022-11-20T01:36:12;5.60;99.90
1590;DHT22;788;48.720;9.158;2022-11-20T01:38:39;5.50;99.90
1590;DHT22;788;48.720;9.158;2022-11-20T01:41:07;5.40;99.90
1590;DHT22;788;48.720;9.158;2022-11-20T01:43:36;5.40;99.90
1590;DHT22;788;48.720;9.158;2022-11-20T01:46:06;5.30;99.90
1590;DHT22;788;48.720;9.158;2022-11-20T01:48:42;5.20;99.90
1590;DHT22;788;48.720;9.158;2022-11-20T01:51:17;5.30;99.90
1590;DHT22;788;48.720;9.158;2022-11-20T01:53:46;5.30;99.90
1590;DHT22;788;48.720;9.158;2022-11-20T01:56:15;5.10;99.90
1590;DHT22;788;48.720;9.158;2022-11-20T01:58:49;5.10;99.90
1590;DHT22;788;48.720;9.158;2022-11-20T02:01:18;4.90;99.90
1590;DHT22;788;48.720;9.158;2022-11-20T02:03:49;4.80;99.90
1590;DHT22;788;48.720;9.158;2022-11-20T02:06:22;4.90;99.90
1590;DHT22;788;48.720;9.158;2022-11-20T02:08:51;4.90;99.90
1590;DHT22;788;48.720;9.158;2022-11-20T02:11:18;4.90;99.90
1590;DHT22;788;48.720;9.158;2022-11-20T02:13:45;4.90;99.90
1590;DHT22;788;48.720;9.158;2022-11-20T02:16:17;4.80;99.90
1590;DHT22;788;48.720;9.158;2022-11-20T02:18:48;4.90;99.90
1590;DHT22;788;48.720;9.158;2022-11-20T02:21:30;4.80;99.90
1590;DHT22;788;48.720;9.158;2022-11-20T02:24:08;4.90;99.90
1590;DHT22;788;48.720;9.158;2022-11-20T02:26:45;4.90;99.90
1590;DHT22;788;48.720;9.158;2022-11-20T02:29:14;4.90;99.90
1590;DHT22;788;48.720;9.158;2022-11-20T02:31:43;4.90;99.90
1590;DHT22;788;48.720;9.158;2022-11-20T02:34:10;4.90;99.90
1590;DHT22;788;48.720;9.158;2022-11-20T02:36:53;5.00;99.90
1590;DHT22;788;48.720;9.158;2022-11-20T02:39:27;5.10;99.90
1590;DHT22;788;48.720;9.158;2022-11-20T02:41:56;4.90;99.90
1590;DHT22;788;48.720;9.158;2022-11-20T02:44:23;5.00;99.90
1590;DHT22;788;48.720;9.158;2022-11-20T02:46:50;5.00;99.90
1590;DHT22;788;48.720;9.158;2022-11-20T02:49:17;5.10;99.90
1590;DHT22;788;48.720;9.158;2022-11-20T02:51:44;5.00;99.90
1590;DHT22;788;48.720;9.158;2022-11-20T02:54:13;5.00;99.90
1590;DHT22;788;48.720;9.158;2022-11-20T02:56:42;5.10;99.90
1590;DHT22;788;48.720;9.158;2022-11-20T02:59:09;5.10;99.90
1590;DHT22;788;48.720;9.158;2022-11-20T03:01:38;5.10;99.90
1590;DHT22;788;48.720;9.158;2022-11-20T03:04:05;5.10;99.90
1590;DHT22;788;48.720;9.158;2022-11-20T03:06:32;5.10;99.90
1590;DHT22;788;48.720;9.158;2022-11-20T03:09:00;5.00;99.90
1590;DHT22;788;48.720;9.158;2022-11-20T03:11:30;5.20;99.90
1590;DHT22;788;48.720;9.158;2022-11-20T03:14:01;5.10;99.90
1590;DHT22;788;48.720;9.158;2022-11-20T03:16:30;5.20;99.90
1590;DHT22;788;48.720;9.158;2022-11-20T03:19:00;5.20;99.90
1590;DHT22;788;48.720;9.158;2022-11-20T03:21:27;5.20;99.90
1590;DHT22;788;48.720;9.158;2022-11-20T03:23:54;5.30;99.90
1590;DHT22;788;48.720;9.158;2022-11-20T03:26:24;5.40;99.90
1590;DHT22;788;48.720;9.158;2022-11-20T03:28:54;5.30;99.90
1590;DHT22;788;48.720;9.158;2022-11-20T03:31:24;5.30;99.90
1590;DHT22;788;48.720;9.158;2022-11-20T03:33:52;5.40;99.90
1590;DHT22;788;48.720;9.158;2022-11-20T03:36:20;5.30;99.90
1590;DHT22;788;48.720;9.158;2022-11-20T03:38:48;5.20;99.90
1590;DHT22;788;48.720;9.158;2022-11-20T08:01:06;5.70;99.90
1590;DHT22;788;48.720;9.158;2022-11-20T08:03:56;5.70;99.90
1590;DHT22;788;48.720;9.158;2022-11-20T08:30:47;6.20;99.90
1590;DHT22;788;48.720;9.158;2022-11-20T08:33:15;6.20;99.90
1590;DHT22;788;48.720;9.158;2022-11-20T08:35:42;6.30;99.90
1590;DHT22;788;48.720;9.158;2022-11-20T08:38:09;6.40;99.90
1590;DHT22;788;48.720;9.158;2022-11-20T08:40:36;6.40;99.90
1590;DHT22;788;48.720;9.158;2022-11-20T08:43:03;6.50;99.90
1590;DHT22;788;48.720;9.158;2022-11-20T08:45:30;6.50;99.90
1590;DHT22;788;48.720;9.158;2022-11-20T08:48:02;6.50;99.90
1590;DHT22;788;48.720;9.158;2022-11-20T08:50:29;6.50;99.90
1590;DHT22;788;48.720;9.158;2022-11-20T08:53:02;6.60;99.90
1590;DHT22;788;48.720;9.158;2022-11-20T08:55:29;6.70;99.90
1590;DHT22;788;48.720;9.158;2022-11-20T08:57:56;6.70;99.90
1590;DHT22;788;48.720;9.158;2022-11-20T09:00:22;6.80;99.90
1590;DHT22;788;48.720;9.158;2022-11-20T09:02:49;6.90;99.90
1590;DHT22;788;48.720;9.158;2022-11-20T09:05:18;7.00;99.90
1590;DHT22;788;48.720;9.158;2022-11-20T09:07:45;7.20;99.90
1590;DHT22;788;48.720;9.158;2022-11-20T09:10:12;7.20;99.90
1590;DHT22;788;48.720;9.158;2022-11-20T09:12:39;7.30;99.90
1590;DHT22;788;48.720;9.158;2022-11-20T09:15:06;7.30;99.90
1590;DHT22;788;48.720;9.158;2022-11-20T09:17:33;7.20;99.90
1590;DHT22;788;48.720;9.158;2022-11-20T09:20:00;7.10;99.90
1590;DHT22;788;48.720;9.158;2022-11-20T09:22:28;7.10;99.90
1590;DHT22;788;48.720;9.158;2022-11-20T09:24:55;7.20;99.90
1590;DHT22;788;48.720;9.158;2022-11-20T09:27:22;7.00;99.90
1590;DHT22;788;48.720;9.158;2022-11-20T09:29:49;7.00;99.90
1590;DHT22;788;48.720;9.158;2022-11-20T09:32:16;7.10;99.90
1590;DHT22;788;48.720;9.158;2022-11-20T09:34:43;7.20;99.90
1590;DHT22;788;48.720;9.158;2022-11-20T09:37:09;7.30;99.90
1590;DHT22;788;48.720;9.158;2022-11-20T09:42:32;7.30;99.90
1590;DHT22;788;48.720;9.158;2022-11-20T09:45:16;7.30;99.90
1590;DHT22;788;48.720;9.158;2022-11-20T09:48:10;7.20;99.90
1590;DHT22;788;48.720;9.158;2022-11-20T09:50:47;7.10;99.90
1590;DHT22;788;48.720;9.158;2022-11-20T09:53:20;7.00;99.90
1590;DHT22;788;48.720;9.158;2022-11-20T09:55:50;6.90;99.90
1590;DHT22;788;48.720;9.158;2022-11-20T09:58:25;7.00;99.90
1590;DHT22;788;48.720;9.158;2022-11-20T10:01:08;7.00;99.90
1590;DHT22;788;48.720;9.158;2022-11-20T10:03:44;7.00;99.90
1590;DHT22;788;48.720;9.158;2022-11-20T10:06:18;7.00;99.90
1590;DHT22;788;48.720;9.158;2022-11-20T10:08:57;7.20;99.90
1590;DHT22;788;48.720;9.158;2022-11-20T10:11:38;7.10;99.90
1590;DHT22;788;48.720;9.158;2022-11-20T10:14:20;7.00;99.90
1590;DHT22;788;48.720;9.158;2022-11-20T10:17:12;7.00;99.90
1590;DHT22;788;48.720;9.158;2022-11-20T10:19:52;6.90;99.90
1590;DHT22;788;48.720;9.158;2022-11-20T10:22:37;7.00;99.90
1590;DHT22;788;48.720;9.158;2022-11-20T10:25:14;7.00;99.90
1590;DHT22;788;48.720;9.158;2022-11-20T10:28:03;7.10;99.90
1590;DHT22;788;48.720;9.158;2022-11-20T10:30:37;7.00;99.90
1590;DHT22;788;48.720;9.158;2022-11-20T10:33:11;7.00;99.90
1590;DHT22;788;48.720;9.158;2022-11-20T10:35:52;7.00;99.90
1590;DHT22;788;48.720;9.158;2022-11-20T10:38:24;6.90;99.90
1590;DHT22;788;48.720;9.158;2022-11-20T10:40:54;6.70;99.90
1590;DHT22;788;48.720;9.158;2022-11-20T10:43:46;6.80;99.90
1590;DHT22;788;48.720;9.158;2022-11-20T10:46:19;6.70;99.90
1590;DHT22;788;48.720;9.158;2022-11-20T10:48:48;6.70;99.90
1590;DHT22;788;48.720;9.158;2022-11-20T10:51:21;6.70;99.90
1590;DHT22;788;48.720;9.158;2022-11-20T10:53:58;6.60;99.90
1590;DHT22;788;48.720;9.158;2022-11-20T10:56:30;6.70;99.90
1590;DHT22;788;48.720;9.158;2022-11-20T10:59:32;6.80;99.90
1590;DHT22;788;48.720;9.158;2022-11-20T11:02:15;6.70;99.90
1590;DHT22;788;48.720;9.158;2022-11-20T11:04:48;6.70;99.90
1590;DHT22;788;48.720;9.158;2022-11-20T11:07:23;6.60;99.90
1590;DHT22;788;48.720;9.158;2022-11-20T11:09:55;6.80;99.90
1590;DHT22;788;48.720;9.158;2022-11-20T11:12:24;6.70;99.90
1590;DHT22;788;48.720;9.158;2022-11-20T11:14:52;6.60;99.90
1590;DHT22;788;48.720;9.158;2022-11-20T11:17:29;6.70;99.90
1590;DHT22;788;48.720;9.158;2022-11-20T11:20:01;6.90;99.90
1590;DHT22;788;48.720;9.158;2022-11-20T11:22:29;7.00;99.90
1590;DHT22;788;48.720;9.158;2022-11-20T11:24:57;7.10;99.90
1590;DHT22;788;48.720;9.158;2022-11-20T11:27:24;7.10;99.90
1590;DHT22;788;48.720;9.158;2022-11-20T11:30:10;7.20;99.90
1590;DHT22;788;48.720;9.158;2022-11-20T11:32:43;7.40;99.90
1590;DHT22;788;48.720;9.158;2022-11-20T11:35:22;7.70;99.90
1590;DHT22;788;48.720;9.158;2022-11-20T11:38:01;8.20;99.90
1590;DHT22;788;48.720;9.158;2022-11-20T11:40:31;8.90;99.90
1590;DHT22;788;48.720;9.158;2022-11-20T11:43:05;9.70;99.90
